createdAt,value
2019-04-22T00:00:55.640Z,5.40
2019-04-22T00:03:27.899Z,5.10
2019-04-22T00:06:12.860Z,5.60
2019-04-22T00:08:50.645Z,5.80
2019-04-22T00:11:25.987Z,5.77
2019-04-22T00:13:51.954Z,5.37
2019-04-22T00:16:22.599Z,5.17
2019-04-22T00:19:13.183Z,5.23
2019-04-22T00:21:19.788Z,5.73
2019-04-22T00:23:51.968Z,5.60
2019-04-22T00:26:26.084Z,5.20
2019-04-22T00:28:50.079Z,5.53
2019-04-22T00:31:20.947Z,6.30
2019-04-22T00:33:53.174Z,6.10
2019-04-22T00:36:25.569Z,5.80
2019-04-22T00:38:59.026Z,5.43
2019-04-22T00:41:34.136Z,5.40
2019-04-22T00:43:59.531Z,5.67
2019-04-22T00:46:27.552Z,5.77
2019-04-22T00:49:18.730Z,5.47
2019-04-22T00:51:28.599Z,5.33
2019-04-22T00:53:54.556Z,5.30
2019-04-22T00:56:24.730Z,5.77
2019-04-22T00:58:56.586Z,4.80
2019-04-22T01:01:23.716Z,5.43
2019-04-22T01:06:25.849Z,5.27
2019-04-22T01:08:57.897Z,5.30
2019-04-22T01:11:29.541Z,5.50
2019-04-22T01:13:55.824Z,5.37
2019-04-22T01:16:30.947Z,5.30
2019-04-22T01:18:55.637Z,5.40
2019-04-22T01:21:36.802Z,5.20
2019-04-22T01:23:59.880Z,4.83
2019-04-22T01:26:25.559Z,5.50
2019-04-22T01:28:50.049Z,5.37
2019-04-22T01:31:15.995Z,5.20
2019-04-22T01:33:46.440Z,5.30
2019-04-22T01:36:25.956Z,5.40
2019-04-22T01:39:01.996Z,5.93
2019-04-22T01:41:42.441Z,5.73
2019-04-22T01:44:14.363Z,5.93
2019-04-22T01:46:42.637Z,6.00
2019-04-22T01:49:10.052Z,5.43
2019-04-22T01:51:51.781Z,5.57
2019-04-22T01:54:15.151Z,6.17
2019-04-22T01:56:40.847Z,5.43
2019-04-22T01:58:59.202Z,5.60
2019-04-22T02:01:43.702Z,6.10
2019-04-22T02:04:10.471Z,6.40
2019-04-22T02:06:43.960Z,6.07
2019-04-22T02:09:17.344Z,6.03
2019-04-22T02:11:45.492Z,5.70
2019-04-22T02:14:11.688Z,5.90
2019-04-22T02:16:48.176Z,5.83
2019-04-22T02:19:18.447Z,5.80
2019-04-22T02:21:35.433Z,5.93
2019-04-22T02:24:09.271Z,6.00
2019-04-22T02:26:41.953Z,5.17
2019-04-22T02:29:15.096Z,4.93
2019-04-22T02:31:44.199Z,5.63
2019-04-22T02:34:22.263Z,5.90
2019-04-22T02:36:41.144Z,5.37
2019-04-22T02:39:12.107Z,5.33
2019-04-22T02:41:43.814Z,5.80
2019-04-22T02:44:16.904Z,5.70
2019-04-22T02:47:07.882Z,5.73
2019-04-22T02:49:22.228Z,6.20
2019-04-22T02:51:38.679Z,6.30
2019-04-22T02:54:44.679Z,5.30
2019-04-22T02:56:48.744Z,5.60
2019-04-22T02:59:14.615Z,5.27
2019-04-22T03:01:51.449Z,6.40
2019-04-22T03:06:45.900Z,6.10
2019-04-22T03:09:19.049Z,6.40
2019-04-22T03:11:56.698Z,6.13
2019-04-22T03:14:19.569Z,6.03
2019-04-22T03:16:43.218Z,6.50
2019-04-22T03:19:25.443Z,6.07
2019-04-22T03:21:48.659Z,6.43
2019-04-22T03:26:48.531Z,6.40
2019-04-22T03:29:18.105Z,6.30
2019-04-22T03:39:43.541Z,6.40
2019-04-22T03:42:06.401Z,6.30
2019-04-22T03:44:31.023Z,6.33
2019-04-22T03:52:07.358Z,6.60
2019-04-22T03:54:43.716Z,6.50
2019-04-22T03:59:33.734Z,6.87
2019-04-22T04:09:32.692Z,6.57
2019-04-22T04:12:03.976Z,6.53
2019-04-22T04:17:02.166Z,7.00
2019-04-22T04:19:34.169Z,6.87
2019-04-22T04:21:58.182Z,6.77
2019-04-22T04:27:06.714Z,6.00
2019-04-22T04:32:20.741Z,6.00
2019-04-22T04:34:54.281Z,6.13
2019-04-22T04:37:07.355Z,6.30
2019-04-22T04:39:34.231Z,6.23
2019-04-22T04:42:28.251Z,6.17
2019-04-22T04:44:47.854Z,6.40
2019-04-22T04:47:11.588Z,6.30
2019-04-22T04:49:34.578Z,6.60
2019-04-22T04:52:10.178Z,6.40
2019-04-22T04:57:00.750Z,6.47
2019-04-22T05:02:02.365Z,6.50
2019-04-22T05:07:09.226Z,6.07
2019-04-22T05:09:25.202Z,6.13
2019-04-22T05:12:24.580Z,6.23
2019-04-22T05:17:18.445Z,5.97
2019-04-22T05:19:32.473Z,6.10
2019-04-22T05:21:59.553Z,6.30
2019-04-22T05:24:32.615Z,5.93
2019-04-22T05:27:11.283Z,6.00
2019-04-22T05:30:00.642Z,6.57
2019-04-22T05:31:56.784Z,6.30
2019-04-22T05:34:28.197Z,5.87
2019-04-22T05:37:00.949Z,5.57
2019-04-22T05:39:43.657Z,5.60
2019-04-22T05:42:03.658Z,5.57
2019-04-22T05:44:29.468Z,5.53
2019-04-22T05:46:54.442Z,5.70
2019-04-22T05:49:33.232Z,5.60
2019-04-22T05:51:55.079Z,5.43
2019-04-22T05:54:27.885Z,5.80
2019-04-22T05:56:53.064Z,5.43
2019-04-22T05:59:36.205Z,5.97
2019-04-22T06:04:32.419Z,5.30
2019-04-22T06:07:02.826Z,5.10
2019-04-22T06:09:30.221Z,5.37
2019-04-22T06:11:58.905Z,5.43
2019-04-22T06:14:31.092Z,4.70
2019-04-22T06:17:08.189Z,4.90
2019-04-22T06:19:33.231Z,4.63
2019-04-22T06:22:04.272Z,4.80
2019-04-22T06:24:31.447Z,4.40
2019-04-22T06:27:08.298Z,4.70
2019-04-22T06:29:31.878Z,4.40
2019-04-22T06:34:48.606Z,4.73
2019-04-22T06:37:07.245Z,4.50
2019-04-22T06:42:08.715Z,4.27
2019-04-22T06:44:36.881Z,4.53
2019-04-22T06:47:05.320Z,4.50
2019-04-22T06:49:36.612Z,4.70
2019-04-22T06:57:06.162Z,4.83
2019-04-22T06:59:36.579Z,4.97
2019-04-22T07:02:10.066Z,4.90
2019-04-22T07:04:36.440Z,4.83
2019-04-22T07:07:08.389Z,4.60
2019-04-22T07:09:42.906Z,5.10
2019-04-22T07:12:12.078Z,4.57
2019-04-22T07:14:35.623Z,4.60
2019-04-22T07:17:07.125Z,5.03
2019-04-22T07:19:38.325Z,4.67
2019-04-22T07:22:11.064Z,4.90
2019-04-22T07:24:53.781Z,4.70
2019-04-22T07:27:10.611Z,4.80
2019-04-22T07:29:42.792Z,5.10
2019-04-22T07:32:07.817Z,4.60
2019-04-22T07:34:41.167Z,4.60
2019-04-22T07:37:22.738Z,5.30
2019-04-22T07:39:44.124Z,4.47
2019-04-22T07:42:12.680Z,5.40
2019-04-22T07:44:38.453Z,5.37
2019-04-22T07:47:15.326Z,5.80
2019-04-22T07:52:09.782Z,5.30
2019-04-22T07:54:43.378Z,6.03
2019-04-22T07:57:15.330Z,4.97
2019-04-22T07:59:40.396Z,5.90
2019-04-22T08:02:10.183Z,6.17
2019-04-22T08:07:18.106Z,5.43
2019-04-22T08:09:44.597Z,5.73
2019-04-22T08:12:02.115Z,5.57
2019-04-22T08:14:40.884Z,5.80
2019-04-22T08:17:38.701Z,5.63
2019-04-22T08:19:43.215Z,4.90
2019-04-22T08:22:11.704Z,5.40
2019-04-22T08:24:43.542Z,4.50
2019-04-22T08:27:11.599Z,4.50
2019-04-22T08:29:52.403Z,5.40
2019-04-22T08:32:14.358Z,5.70
2019-04-22T08:34:42.799Z,4.53
2019-04-22T08:37:41.499Z,5.73
2019-04-22T08:39:45.339Z,5.00
2019-04-22T08:42:23.442Z,5.83
2019-04-22T08:45:01.226Z,5.50
2019-04-22T08:49:53.581Z,4.80
2019-04-22T08:52:16.404Z,5.20
2019-04-22T08:54:43.695Z,5.13
2019-04-22T08:57:18.267Z,4.70
2019-04-22T08:59:43.615Z,4.90
2019-04-22T09:02:19.814Z,4.60
2019-04-22T09:04:45.439Z,4.70
2019-04-22T09:07:21.219Z,3.97
2019-04-22T09:09:45.960Z,5.07
2019-04-22T09:12:15.909Z,5.83
2019-04-22T09:19:47.809Z,5.17
2019-04-22T09:22:18.306Z,5.20
2019-04-22T09:24:47.025Z,4.80
2019-04-22T09:27:24.918Z,5.43
2019-04-22T09:29:42.866Z,4.67
2019-04-22T09:32:34.781Z,5.43
2019-04-22T09:34:46.985Z,4.43
2019-04-22T09:37:26.866Z,5.03
2019-04-22T09:39:51.930Z,4.30
2019-04-22T09:42:18.837Z,5.50
2019-04-22T09:44:47.281Z,4.93
2019-04-22T09:47:21.136Z,5.03
2019-04-22T09:49:54.869Z,4.30
2019-04-22T09:52:14.904Z,4.40
2019-04-22T09:54:57.866Z,4.33
2019-04-22T09:57:21.435Z,4.00
2019-04-22T09:59:57.768Z,5.20
2019-04-22T10:02:30.558Z,5.37
2019-04-22T10:04:54.049Z,5.53
2019-04-22T10:07:24.133Z,4.90
2019-04-22T10:09:59.790Z,5.40
2019-04-22T10:12:30.479Z,5.30
2019-04-22T10:14:51.200Z,5.20
2019-04-22T10:17:20.286Z,5.57
2019-04-22T10:20:07.111Z,5.43
2019-04-22T10:22:27.575Z,5.00
2019-04-22T10:24:53.576Z,4.87
2019-04-22T10:27:23.900Z,4.80
2019-04-22T10:30:04.117Z,4.60
2019-04-22T10:32:20.646Z,5.10
2019-04-22T10:34:40.951Z,5.20
2019-04-22T16:19:06.947Z,3.27
2019-04-22T16:21:45.528Z,2.90
2019-04-22T16:24:18.218Z,3.03
2019-04-22T16:26:48.630Z,2.80
2019-04-22T16:29:17.166Z,3.17
2019-04-22T16:31:45.649Z,3.13
2019-04-22T16:34:15.454Z,3.13
2019-04-22T16:36:44.892Z,3.00
2019-04-22T16:39:15.124Z,3.37
2019-04-22T16:41:44.579Z,3.07
2019-04-22T16:44:14.376Z,3.20
2019-04-22T16:46:43.606Z,2.80
2019-04-22T16:49:13.778Z,3.30
2019-04-22T16:51:42.436Z,3.23
2019-04-22T16:54:11.829Z,3.73
2019-04-22T16:56:41.787Z,2.80
2019-04-22T16:59:10.739Z,3.60
2019-04-22T17:01:44.027Z,3.20
2019-04-22T17:04:17.040Z,2.77
2019-04-22T17:06:47.822Z,3.00
2019-04-22T17:09:17.737Z,3.07
2019-04-22T17:11:47.778Z,3.10
2019-04-22T17:14:17.977Z,3.30
2019-04-22T17:16:46.654Z,3.10
2019-04-22T17:19:15.419Z,2.80
2019-04-22T17:21:43.879Z,3.00
2019-04-22T17:24:12.306Z,2.93
2019-04-22T17:26:42.189Z,3.00
2019-04-22T17:29:12.337Z,3.00
2019-04-22T17:31:48.425Z,2.93
2019-04-22T17:34:11.568Z,2.90
2019-04-22T17:36:40.587Z,2.80
2019-04-22T17:39:22.866Z,3.30
2019-04-22T17:41:59.355Z,2.60
2019-04-22T17:44:37.689Z,3.30
2019-04-22T17:46:58.544Z,3.73
2019-04-22T17:49:49.924Z,3.10
2019-04-22T17:54:50.468Z,2.90
2019-04-22T17:57:21.626Z,3.00
2019-04-22T17:59:55.321Z,3.00
2019-04-22T18:02:22.142Z,2.97
2019-04-22T18:04:40.399Z,3.10
2019-04-22T18:07:33.006Z,2.93
2019-04-22T18:10:16.489Z,3.00
2019-04-22T18:12:34.312Z,3.30
2019-04-22T18:15:11.343Z,3.00
2019-04-22T18:17:25.023Z,4.63
2019-04-22T18:19:52.025Z,3.37
2019-04-22T18:22:19.755Z,3.53
2019-04-22T18:24:51.641Z,3.03
2019-04-22T18:27:38.926Z,3.20
2019-04-22T18:29:52.008Z,3.43
2019-04-22T18:32:16.543Z,4.00
2019-04-22T18:34:48.001Z,2.43
2019-04-22T18:37:20.976Z,3.40
2019-04-22T18:39:56.966Z,3.30
2019-04-22T18:42:23.148Z,3.37
2019-04-22T18:45:06.551Z,4.27
2019-04-22T18:47:23.757Z,3.40
2019-04-22T18:49:53.239Z,3.00
2019-04-22T18:52:47.035Z,3.30
2019-04-22T18:55:14.547Z,3.43
2019-04-22T18:58:02.991Z,3.53
2019-04-22T19:00:21.442Z,3.80
2019-04-22T19:02:56.430Z,3.70
2019-04-22T19:05:34.753Z,4.07
2019-04-22T19:08:18.186Z,3.80
2019-04-22T19:10:51.825Z,3.50
2019-04-22T19:13:47.344Z,4.60
2019-04-22T19:15:42.903Z,4.00
2019-04-22T19:18:22.171Z,4.00
2019-04-22T19:20:52.050Z,4.20
2019-04-22T19:23:20.713Z,3.70
2019-04-22T19:25:42.374Z,4.70
2019-04-22T19:28:23.939Z,4.00
2019-04-22T19:30:47.973Z,4.30
2019-04-22T19:33:19.066Z,4.13
2019-04-22T19:35:40.176Z,4.37
2019-04-22T19:38:11.669Z,4.13
2019-04-22T19:40:55.583Z,4.73
2019-04-22T19:43:24.084Z,4.87
2019-04-22T19:45:46.007Z,4.70
2019-04-22T19:48:27.203Z,4.70
2019-04-22T19:50:58.952Z,4.50
2019-04-22T19:53:22.747Z,4.30
2019-04-22T19:55:49.666Z,4.70
2019-04-22T19:58:18.500Z,4.83
2019-04-22T20:00:56.254Z,5.03
2019-04-22T20:03:54.527Z,4.30
2019-04-22T20:06:26.839Z,4.40
2019-04-22T20:08:59.767Z,4.90
2019-04-22T20:11:31.653Z,4.97
2019-04-22T20:14:02.708Z,4.53
2019-04-22T20:16:28.115Z,4.87
2019-04-22T20:19:06.924Z,4.87
2019-04-22T20:21:28.592Z,4.90
2019-04-22T20:23:53.042Z,4.60
2019-04-22T20:26:26.226Z,4.73
2019-04-22T20:28:58.946Z,4.53
2019-04-22T20:31:30.134Z,4.60
2019-04-22T20:34:05.023Z,4.17
2019-04-22T20:36:53.708Z,5.03
2019-04-22T20:38:59.538Z,5.10
2019-04-22T20:41:24.940Z,5.07
2019-04-22T20:44:08.098Z,5.30
2019-04-22T20:46:31.160Z,5.23
2019-04-22T20:49:01.334Z,5.43
2019-04-22T20:51:45.896Z,5.13
2019-04-22T20:54:02.189Z,4.80
2019-04-22T20:56:29.965Z,5.07
2019-04-22T20:59:01.975Z,5.07
2019-04-22T21:01:35.674Z,5.27
2019-04-22T21:03:50.934Z,5.53
2019-04-22T21:06:33.509Z,5.30
2019-04-22T21:09:07.334Z,6.13
2019-04-22T21:11:34.331Z,4.90
2019-04-22T21:14:07.742Z,5.57
2019-04-22T21:16:40.011Z,5.47
2019-04-22T21:19:18.628Z,5.57
2019-04-22T21:21:46.679Z,5.03
2019-04-22T21:24:18.572Z,5.37
2019-04-22T21:26:45.359Z,5.23
2019-04-22T21:29:17.300Z,5.03
2019-04-22T21:31:59.010Z,5.30
2019-04-22T21:34:26.343Z,5.40
2019-04-22T21:37:12.207Z,5.60
2019-04-22T21:39:33.392Z,5.23
2019-04-22T21:42:04.838Z,5.90
2019-04-22T21:44:39.852Z,6.10
2019-04-22T21:47:17.749Z,5.70
2019-04-22T21:49:40.481Z,5.37
2019-04-22T21:52:18.137Z,5.43
2019-04-22T21:54:57.163Z,5.97
2019-04-22T21:57:35.236Z,5.97
2019-04-22T22:00:17.307Z,5.87
2019-04-22T22:02:41.117Z,5.63
2019-04-22T22:05:07.185Z,6.17
2019-04-22T22:07:25.623Z,6.23
2019-04-22T22:10:19.725Z,5.90
2019-04-22T22:12:52.470Z,5.60
2019-04-22T22:15:21.003Z,5.83
2019-04-22T22:17:51.648Z,6.00
2019-04-22T22:20:21.678Z,5.80
2019-04-22T22:23:21.927Z,6.10
2019-04-22T22:25:28.143Z,6.30
2019-04-22T22:28:08.892Z,6.17
2019-04-22T22:33:10.471Z,6.70
2019-04-22T22:35:49.791Z,5.83
2019-04-22T22:38:19.206Z,5.87
2019-04-22T22:40:35.901Z,5.77
2019-04-22T22:43:17.250Z,5.47
2019-04-22T22:45:48.533Z,6.13
2019-04-22T22:48:36.806Z,5.50
2019-04-22T22:51:02.082Z,6.00
2019-04-22T22:53:42.915Z,6.00
2019-04-22T22:56:14.009Z,6.37
2019-04-22T22:58:41.201Z,6.97
2019-04-22T23:01:09.638Z,6.60
2019-04-22T23:03:54.389Z,5.90
2019-04-22T23:06:20.741Z,5.80
2019-04-22T23:08:51.817Z,6.80
2019-04-22T23:11:20.601Z,5.67
2019-04-22T23:13:51.223Z,6.63
2019-04-22T23:16:15.162Z,6.50
2019-04-22T23:18:34.122Z,6.70
2019-04-22T23:21:03.185Z,6.93
2019-04-22T23:23:51.565Z,7.30
2019-04-22T23:26:29.928Z,7.40
2019-04-22T23:29:13.442Z,6.87
2019-04-22T23:31:44.145Z,7.07
2019-04-22T23:34:18.428Z,6.40
2019-04-22T23:36:56.036Z,7.23
2019-04-22T23:39:33.306Z,7.10
2019-04-22T23:42:15.938Z,7.63
2019-04-22T23:44:39.718Z,7.50
2019-04-22T23:47:10.995Z,7.40
2019-04-22T23:49:52.590Z,6.93
2019-04-22T23:52:23.885Z,7.87
2019-04-22T23:55:03.337Z,6.90
2019-04-22T23:57:33.361Z,7.30
